Woody Acres, Texas
Current Conditions -  °F | °C
As of 1:53 PM on Wednesday 26 Nov 2014 (Local Time) from KIAH Reporting Station
Clear Clear  
Wind Chill: 72°   Ceiling: Unl
Heat Index: 72°   Visibility: 10mi
Dew Point: 34°   Wind: 10mph
Humidity: 25%   Direction: 240°WSW
Pressure: 30.16"   Gusts: 17mph
Location:  30.1192°N, 95.2824°W
Report Text: KIAH 261953Z 24009G15KT 10SM CLR 22/01 A3016 RMK AO2 SLP213 T02220011
Loading
Personal Weather Stations






























Interactive Weather Map New forecast layout! Learn more

10-Day Weather Forecast

Advertisements
Track Severe Weather on mobile